sensor_id;sensor_type;location;lat;lon;timestamp;P1;durP1;ratioP1;P2;durP2;ratioP2
5006;SDS011;2522;50.972;11.046;2022-08-07T05:01:12;2.60;;;1.53;;
5006;SDS011;2522;50.972;11.046;2022-08-07T05:03:45;3.67;;;1.40;;
5006;SDS011;2522;50.972;11.046;2022-08-07T05:06:18;3.83;;;1.20;;
5006;SDS011;2522;50.972;11.046;2022-08-07T05:08:55;3.50;;;1.30;;
5006;SDS011;2522;50.972;11.046;2022-08-07T05:11:29;3.00;;;1.23;;
5006;SDS011;2522;50.972;11.046;2022-08-07T05:13:59;2.00;;;1.07;;
5006;SDS011;2522;50.972;11.046;2022-08-07T05:16:32;4.83;;;1.10;;
5006;SDS011;2522;50.972;11.046;2022-08-07T05:19:02;4.00;;;1.07;;
5006;SDS011;2522;50.972;11.046;2022-08-07T05:21:32;1.60;;;1.03;;
5006;SDS011;2522;50.972;11.046;2022-08-07T05:24:00;2.60;;;1.00;;
5006;SDS011;2522;50.972;11.046;2022-08-07T05:26:30;3.60;;;1.67;;
5006;SDS011;2522;50.972;11.046;2022-08-07T05:29:00;9.40;;;1.23;;
5006;SDS011;2522;50.972;11.046;2022-08-07T05:31:30;2.17;;;0.80;;
5006;SDS011;2522;50.972;11.046;2022-08-07T05:34:02;3.17;;;1.20;;
5006;SDS011;2522;50.972;11.046;2022-08-07T05:36:32;1.50;;;1.10;;
5006;SDS011;2522;50.972;11.046;2022-08-07T05:38:59;2.13;;;1.07;;
5006;SDS011;2522;50.972;11.046;2022-08-07T05:41:27;3.00;;;1.20;;
5006;SDS011;2522;50.972;11.046;2022-08-07T05:43:55;2.93;;;1.17;;
5006;SDS011;2522;50.972;11.046;2022-08-07T05:46:23;8.43;;;1.43;;
5006;SDS011;2522;50.972;11.046;2022-08-07T05:48:51;1.47;;;1.23;;
5006;SDS011;2522;50.972;11.046;2022-08-07T05:51:19;1.67;;;1.17;;
5006;SDS011;2522;50.972;11.046;2022-08-07T05:53:47;3.33;;;1.30;;
5006;SDS011;2522;50.972;11.046;2022-08-07T05:56:15;3.40;;;1.13;;
5006;SDS011;2522;50.972;11.046;2022-08-07T05:58:45;1.90;;;1.30;;
5006;SDS011;2522;50.972;11.046;2022-08-07T06:01:12;2.73;;;1.30;;
5006;SDS011;2522;50.972;11.046;2022-08-07T06:03:42;3.13;;;1.50;;
5006;SDS011;2522;50.972;11.046;2022-08-07T06:06:14;2.97;;;1.10;;
5006;SDS011;2522;50.972;11.046;2022-08-07T06:08:41;2.93;;;1.10;;
5006;SDS011;2522;50.972;11.046;2022-08-07T06:11:09;2.27;;;1.30;;
5006;SDS011;2522;50.972;11.046;2022-08-07T06:13:37;1.17;;;1.00;;
5006;SDS011;2522;50.972;11.046;2022-08-07T06:16:05;4.10;;;1.37;;
5006;SDS011;2522;50.972;11.046;2022-08-07T06:18:33;1.67;;;1.23;;
5006;SDS011;2522;50.972;11.046;2022-08-07T06:21:01;4.60;;;0.97;;
5006;SDS011;2522;50.972;11.046;2022-08-07T06:23:31;1.53;;;1.23;;
5006;SDS011;2522;50.972;11.046;2022-08-07T06:25:58;3.80;;;1.50;;
5006;SDS011;2522;50.972;11.046;2022-08-07T06:28:25;1.70;;;1.40;;
5006;SDS011;2522;50.972;11.046;2022-08-07T06:30:52;2.73;;;1.50;;
5006;SDS011;2522;50.972;11.046;2022-08-07T06:33:19;2.17;;;1.10;;
5006;SDS011;2522;50.972;11.046;2022-08-07T06:35:47;3.17;;;1.47;;
5006;SDS011;2522;50.972;11.046;2022-08-07T06:38:14;6.23;;;1.90;;
5006;SDS011;2522;50.972;11.046;2022-08-07T06:40:45;1.87;;;1.30;;
5006;SDS011;2522;50.972;11.046;2022-08-07T06:43:14;1.23;;;1.10;;
5006;SDS011;2522;50.972;11.046;2022-08-07T06:45:45;4.60;;;1.40;;
5006;SDS011;2522;50.972;11.046;2022-08-07T06:48:12;3.30;;;1.20;;
5006;SDS011;2522;50.972;11.046;2022-08-07T06:50:39;8.43;;;1.47;;
5006;SDS011;2522;50.972;11.046;2022-08-07T06:53:09;2.37;;;1.30;;
5006;SDS011;2522;50.972;11.046;2022-08-07T06:55:37;2.33;;;1.90;;
5006;SDS011;2522;50.972;11.046;2022-08-07T06:58:08;2.17;;;1.30;;
5006;SDS011;2522;50.972;11.046;2022-08-07T07:00:39;3.33;;;1.40;;
5006;SDS011;2522;50.972;11.046;2022-08-07T07:03:07;2.53;;;1.57;;
5006;SDS011;2522;50.972;11.046;2022-08-07T07:05:35;6.90;;;1.37;;
5006;SDS011;2522;50.972;11.046;2022-08-07T07:08:02;3.17;;;1.50;;
5006;SDS011;2522;50.972;11.046;2022-08-07T07:10:33;2.30;;;1.40;;
5006;SDS011;2522;50.972;11.046;2022-08-07T07:13:02;2.43;;;1.20;;
5006;SDS011;2522;50.972;11.046;2022-08-07T07:15:35;2.27;;;1.23;;
5006;SDS011;2522;50.972;11.046;2022-08-07T07:18:08;4.77;;;1.50;;
5006;SDS011;2522;50.972;11.046;2022-08-07T07:20:41;2.17;;;1.43;;
5006;SDS011;2522;50.972;11.046;2022-08-07T07:23:12;5.87;;;1.30;;
5006;SDS011;2522;50.972;11.046;2022-08-07T07:25:39;1.97;;;1.27;;
5006;SDS011;2522;50.972;11.046;2022-08-07T07:28:09;3.67;;;1.27;;
5006;SDS011;2522;50.972;11.046;2022-08-07T07:30:42;2.10;;;1.43;;
5006;SDS011;2522;50.972;11.046;2022-08-07T07:33:13;1.80;;;1.37;;
5006;SDS011;2522;50.972;11.046;2022-08-07T07:35:42;2.23;;;1.20;;
5006;SDS011;2522;50.972;11.046;2022-08-07T07:38:13;6.37;;;1.37;;
5006;SDS011;2522;50.972;11.046;2022-08-07T07:40:42;4.13;;;1.60;;
5006;SDS011;2522;50.972;11.046;2022-08-07T07:43:11;3.13;;;1.30;;
5006;SDS011;2522;50.972;11.046;2022-08-07T07:45:41;3.13;;;1.40;;
5006;SDS011;2522;50.972;11.046;2022-08-07T07:48:11;2.83;;;1.17;;
5006;SDS011;2522;50.972;11.046;2022-08-07T07:50:40;2.20;;;1.10;;
5006;SDS011;2522;50.972;11.046;2022-08-07T07:53:07;2.20;;;1.07;;
5006;SDS011;2522;50.972;11.046;2022-08-07T07:55:36;1.43;;;0.87;;
5006;SDS011;2522;50.972;11.046;2022-08-07T07:58:03;1.80;;;1.40;;
5006;SDS011;2522;50.972;11.046;2022-08-07T08:00:31;2.70;;;1.10;;
5006;SDS011;2522;50.972;11.046;2022-08-07T08:03:02;1.93;;;1.03;;
5006;SDS011;2522;50.972;11.046;2022-08-07T08:05:31;9.13;;;1.20;;
5006;SDS011;2522;50.972;11.046;2022-08-07T08:08:01;1.97;;;1.00;;
5006;SDS011;2522;50.972;11.046;2022-08-07T08:10:28;3.17;;;1.13;;
5006;SDS011;2522;50.972;11.046;2022-08-07T08:12:56;5.47;;;1.47;;
5006;SDS011;2522;50.972;11.046;2022-08-07T08:15:24;5.97;;;1.23;;
5006;SDS011;2522;50.972;11.046;2022-08-07T08:17:52;3.00;;;1.37;;
5006;SDS011;2522;50.972;11.046;2022-08-07T08:20:22;6.10;;;1.10;;
5006;SDS011;2522;50.972;11.046;2022-08-07T08:22:50;5.03;;;1.30;;
5006;SDS011;2522;50.972;11.046;2022-08-07T08:25:33;3.87;;;1.40;;
5006;SDS011;2522;50.972;11.046;2022-08-07T08:28:21;5.27;;;1.33;;
5006;SDS011;2522;50.972;11.046;2022-08-07T08:30:49;2.50;;;0.80;;
5006;SDS011;2522;50.972;11.046;2022-08-07T08:33:21;3.20;;;1.00;;
5006;SDS011;2522;50.972;11.046;2022-08-07T08:35:51;6.00;;;1.00;;
5006;SDS011;2522;50.972;11.046;2022-08-07T08:38:21;1.80;;;1.40;;
5006;SDS011;2522;50.972;11.046;2022-08-07T08:40:52;2.93;;;1.10;;
5006;SDS011;2522;50.972;11.046;2022-08-07T08:43:26;1.40;;;0.80;;
5006;SDS011;2522;50.972;11.046;2022-08-07T08:46:01;2.60;;;1.00;;
5006;SDS011;2522;50.972;11.046;2022-08-07T08:48:34;1.77;;;0.90;;
5006;SDS011;2522;50.972;11.046;2022-08-07T08:51:08;1.20;;;0.70;;
5006;SDS011;2522;50.972;11.046;2022-08-07T08:53:41;2.90;;;1.67;;
5006;SDS011;2522;50.972;11.046;2022-08-07T08:56:14;2.30;;;1.20;;
5006;SDS011;2522;50.972;11.046;2022-08-07T08:58:48;2.00;;;0.83;;
5006;SDS011;2522;50.972;11.046;2022-08-07T09:01:19;9.10;;;1.47;;
5006;SDS011;2522;50.972;11.046;2022-08-07T09:03:52;3.53;;;0.80;;
5006;SDS011;2522;50.972;11.046;2022-08-07T09:09:14;2.80;;;0.90;;
5006;SDS011;2522;50.972;11.046;2022-08-07T09:11:53;1.83;;;0.97;;
5006;SDS011;2522;50.972;11.046;2022-08-07T09:14:30;1.10;;;0.70;;
5006;SDS011;2522;50.972;11.046;2022-08-07T09:17:03;1.60;;;0.70;;
5006;SDS011;2522;50.972;11.046;2022-08-07T09:19:51;1.93;;;0.80;;
5006;SDS011;2522;50.972;11.046;2022-08-07T09:22:28;1.60;;;0.60;;
5006;SDS011;2522;50.972;11.046;2022-08-07T09:25:09;0.87;;;0.57;;
5006;SDS011;2522;50.972;11.046;2022-08-07T09:27:41;0.97;;;0.70;;
5006;SDS011;2522;50.972;11.046;2022-08-07T09:30:16;1.03;;;0.70;;
5006;SDS011;2522;50.972;11.046;2022-08-07T09:32:49;1.70;;;0.80;;
5006;SDS011;2522;50.972;11.046;2022-08-07T09:35:37;3.00;;;0.83;;
5006;SDS011;2522;50.972;11.046;2022-08-07T09:38:12;2.77;;;0.67;;
5006;SDS011;2522;50.972;11.046;2022-08-07T09:40:55;1.77;;;0.70;;
5006;SDS011;2522;50.972;11.046;2022-08-07T09:43:32;1.73;;;0.80;;
5006;SDS011;2522;50.972;11.046;2022-08-07T09:46:15;3.00;;;0.90;;
5006;SDS011;2522;50.972;11.046;2022-08-07T09:48:50;1.60;;;0.93;;
5006;SDS011;2522;50.972;11.046;2022-08-07T09:51:33;1.30;;;0.80;;
5006;SDS011;2522;50.972;11.046;2022-08-07T09:54:11;1.80;;;1.00;;
5006;SDS011;2522;50.972;11.046;2022-08-07T09:56:49;3.33;;;0.93;;
5006;SDS011;2522;50.972;11.046;2022-08-07T09:59:32;1.53;;;0.70;;
5006;SDS011;2522;50.972;11.046;2022-08-07T10:02:16;1.37;;;0.60;;
5006;SDS011;2522;50.972;11.046;2022-08-07T10:05:02;1.97;;;0.67;;
5006;SDS011;2522;50.972;11.046;2022-08-07T10:07:42;0.80;;;0.50;;
5006;SDS011;2522;50.972;11.046;2022-08-07T10:10:25;0.90;;;0.60;;
5006;SDS011;2522;50.972;11.046;2022-08-07T10:13:11;1.63;;;0.50;;
5006;SDS011;2522;50.972;11.046;2022-08-07T10:15:59;1.27;;;0.70;;
5006;SDS011;2522;50.972;11.046;2022-08-07T10:21:45;0.97;;;0.60;;
5006;SDS011;2522;50.972;11.046;2022-08-07T10:24:28;1.03;;;0.57;;
5006;SDS011;2522;50.972;11.046;2022-08-07T10:30:18;3.63;;;0.73;;
5006;SDS011;2522;50.972;11.046;2022-08-07T10:32:59;1.20;;;0.70;;
5006;SDS011;2522;50.972;11.046;2022-08-07T10:35:45;3.43;;;0.70;;
5006;SDS011;2522;50.972;11.046;2022-08-07T10:38:23;1.03;;;0.70;;
5006;SDS011;2522;50.972;11.046;2022-08-07T10:41:04;0.80;;;0.60;;
5006;SDS011;2522;50.972;11.046;2022-08-07T10:43:38;0.90;;;0.60;;
5006;SDS011;2522;50.972;11.046;2022-08-07T10:46:11;0.90;;;0.63;;
5006;SDS011;2522;50.972;11.046;2022-08-07T10:48:46;1.50;;;0.87;;
5006;SDS011;2522;50.972;11.046;2022-08-07T10:51:38;1.33;;;0.60;;
5006;SDS011;2522;50.972;11.046;2022-08-07T10:54:14;1.07;;;0.60;;
5006;SDS011;2522;50.972;11.046;2022-08-07T10:56:48;1.40;;;0.70;;
5006;SDS011;2522;50.972;11.046;2022-08-07T10:59:32;4.03;;;0.80;;
5006;SDS011;2522;50.972;11.046;2022-08-07T11:02:08;2.87;;;0.73;;
5006;SDS011;2522;50.972;11.046;2022-08-07T11:04:45;2.43;;;0.70;;
5006;SDS011;2522;50.972;11.046;2022-08-07T11:07:24;0.90;;;0.50;;
5006;SDS011;2522;50.972;11.046;2022-08-07T11:10:03;2.03;;;0.70;;
5006;SDS011;2522;50.972;11.046;2022-08-07T11:12:39;2.70;;;0.80;;
5006;SDS011;2522;50.972;11.046;2022-08-07T11:15:14;3.73;;;0.93;;
5006;SDS011;2522;50.972;11.046;2022-08-07T11:17:48;1.93;;;0.70;;
5006;SDS011;2522;50.972;11.046;2022-08-07T11:20:20;1.13;;;0.60;;
5006;SDS011;2522;50.972;11.046;2022-08-07T11:22:54;0.80;;;0.60;;
5006;SDS011;2522;50.972;11.046;2022-08-07T11:25:29;1.00;;;0.60;;
5006;SDS011;2522;50.972;11.046;2022-08-07T11:28:03;8.70;;;0.97;;
5006;SDS011;2522;50.972;11.046;2022-08-07T11:30:40;1.17;;;0.70;;
5006;SDS011;2522;50.972;11.046;2022-08-07T11:33:16;1.00;;;0.70;;
5006;SDS011;2522;50.972;11.046;2022-08-07T11:36:02;0.80;;;0.60;;
5006;SDS011;2522;50.972;11.046;2022-08-07T11:38:39;2.10;;;0.70;;
5006;SDS011;2522;50.972;11.046;2022-08-07T11:41:15;1.87;;;0.60;;
5006;SDS011;2522;50.972;11.046;2022-08-07T11:43:51;1.23;;;0.70;;
5006;SDS011;2522;50.972;11.046;2022-08-07T11:46:45;0.90;;;0.57;;
5006;SDS011;2522;50.972;11.046;2022-08-07T11:49:24;1.77;;;0.63;;
5006;SDS011;2522;50.972;11.046;2022-08-07T11:52:12;1.87;;;0.70;;
5006;SDS011;2522;50.972;11.046;2022-08-07T11:55:07;1.87;;;0.67;;
5006;SDS011;2522;50.972;11.046;2022-08-07T11:57:40;2.03;;;0.60;;
5006;SDS011;2522;50.972;11.046;2022-08-07T12:00:10;1.33;;;0.70;;
5006;SDS011;2522;50.972;11.046;2022-08-07T12:02:49;2.10;;;0.70;;
5006;SDS011;2522;50.972;11.046;2022-08-07T12:05:25;1.70;;;0.90;;
5006;SDS011;2522;50.972;11.046;2022-08-07T12:07:56;2.03;;;0.70;;
5006;SDS011;2522;50.972;11.046;2022-08-07T12:10:36;1.27;;;0.70;;
5006;SDS011;2522;50.972;11.046;2022-08-07T12:13:06;2.10;;;0.67;;
5006;SDS011;2522;50.972;11.046;2022-08-07T12:15:38;1.10;;;0.60;;
5006;SDS011;2522;50.972;11.046;2022-08-07T12:18:13;2.90;;;0.70;;
5006;SDS011;2522;50.972;11.046;2022-08-07T12:20:46;0.87;;;0.60;;
5006;SDS011;2522;50.972;11.046;2022-08-07T12:23:34;2.63;;;0.60;;
5006;SDS011;2522;50.972;11.046;2022-08-07T12:26:09;2.00;;;0.60;;
5006;SDS011;2522;50.972;11.046;2022-08-07T12:28:44;3.70;;;0.70;;
5006;SDS011;2522;50.972;11.046;2022-08-07T12:31:18;1.10;;;0.60;;
5006;SDS011;2522;50.972;11.046;2022-08-07T12:33:51;1.40;;;0.60;;
5006;SDS011;2522;50.972;11.046;2022-08-07T12:36:18;1.17;;;0.80;;
5006;SDS011;2522;50.972;11.046;2022-08-07T12:38:47;1.67;;;0.70;;
5006;SDS011;2522;50.972;11.046;2022-08-07T12:41:14;1.10;;;0.80;;
5006;SDS011;2522;50.972;11.046;2022-08-07T12:43:42;2.07;;;0.60;;
5006;SDS011;2522;50.972;11.046;2022-08-07T12:46:14;1.00;;;0.53;;
5006;SDS011;2522;50.972;11.046;2022-08-07T12:48:53;1.60;;;0.70;;
5006;SDS011;2522;50.972;11.046;2022-08-07T12:51:27;3.93;;;1.00;;
5006;SDS011;2522;50.972;11.046;2022-08-07T12:54:03;1.10;;;0.70;;
5006;SDS011;2522;50.972;11.046;2022-08-07T12:56:38;1.67;;;0.60;;
5006;SDS011;2522;50.972;11.046;2022-08-07T12:59:10;1.20;;;0.80;;
5006;SDS011;2522;50.972;11.046;2022-08-07T13:01:43;3.03;;;0.80;;
5006;SDS011;2522;50.972;11.046;2022-08-07T13:04:40;1.13;;;0.70;;
5006;SDS011;2522;50.972;11.046;2022-08-07T13:07:19;4.67;;;1.07;;
5006;SDS011;2522;50.972;11.046;2022-08-07T13:10:09;5.13;;;0.60;;
5006;SDS011;2522;50.972;11.046;2022-08-07T13:12:50;2.10;;;0.70;;
5006;SDS011;2522;50.972;11.046;2022-08-07T13:15:27;0.80;;;0.60;;
5006;SDS011;2522;50.972;11.046;2022-08-07T13:18:05;1.20;;;0.70;;
5006;SDS011;2522;50.972;11.046;2022-08-07T13:20:45;1.40;;;0.67;;
5006;SDS011;2522;50.972;11.046;2022-08-07T13:23:18;1.00;;;0.70;;
5006;SDS011;2522;50.972;11.046;2022-08-07T13:25:50;2.80;;;0.93;;
5006;SDS011;2522;50.972;11.046;2022-08-07T13:28:22;2.63;;;0.87;;
5006;SDS011;2522;50.972;11.046;2022-08-07T13:30:56;8.00;;;0.80;;
5006;SDS011;2522;50.972;11.046;2022-08-07T13:33:31;1.10;;;0.70;;
5006;SDS011;2522;50.972;11.046;2022-08-07T13:36:04;2.07;;;0.60;;
5006;SDS011;2522;50.972;11.046;2022-08-07T13:38:38;1.47;;;0.80;;
5006;SDS011;2522;50.972;11.046;2022-08-07T13:41:15;1.90;;;0.80;;
5006;SDS011;2522;50.972;11.046;2022-08-07T13:43:48;1.00;;;0.90;;
5006;SDS011;2522;50.972;11.046;2022-08-07T13:46:20;5.23;;;1.10;;
5006;SDS011;2522;50.972;11.046;2022-08-07T13:48:54;0.80;;;0.60;;
5006;SDS011;2522;50.972;11.046;2022-08-07T13:51:26;1.33;;;0.80;;
5006;SDS011;2522;50.972;11.046;2022-08-07T13:53:56;1.60;;;0.80;;
5006;SDS011;2522;50.972;11.046;2022-08-07T13:56:26;1.00;;;0.70;;
5006;SDS011;2522;50.972;11.046;2022-08-07T13:58:54;1.20;;;0.67;;
5006;SDS011;2522;50.972;11.046;2022-08-07T14:01:26;1.53;;;0.93;;
5006;SDS011;2522;50.972;11.046;2022-08-07T14:03:55;0.80;;;0.60;;
5006;SDS011;2522;50.972;11.046;2022-08-07T14:06:23;1.30;;;0.70;;
5006;SDS011;2522;50.972;11.046;2022-08-07T14:08:59;1.57;;;0.80;;
5006;SDS011;2522;50.972;11.046;2022-08-07T14:11:28;1.00;;;0.63;;
5006;SDS011;2522;50.972;11.046;2022-08-07T14:14:00;1.50;;;0.67;;
5006;SDS011;2522;50.972;11.046;2022-08-07T14:16:33;1.50;;;0.80;;
5006;SDS011;2522;50.972;11.046;2022-08-07T14:19:03;1.20;;;0.73;;
5006;SDS011;2522;50.972;11.046;2022-08-07T14:21:41;0.90;;;0.60;;
5006;SDS011;2522;50.972;11.046;2022-08-07T14:24:11;1.10;;;0.60;;
5006;SDS011;2522;50.972;11.046;2022-08-07T14:26:47;1.57;;;0.87;;
5006;SDS011;2522;50.972;11.046;2022-08-07T14:29:17;1.40;;;0.77;;
5006;SDS011;2522;50.972;11.046;2022-08-07T14:31:48;1.53;;;0.80;;
5006;SDS011;2522;50.972;11.046;2022-08-07T14:34:16;2.20;;;0.70;;
5006;SDS011;2522;50.972;11.046;2022-08-07T14:36:45;2.57;;;0.77;;
5006;SDS011;2522;50.972;11.046;2022-08-07T14:39:13;1.10;;;0.70;;
5006;SDS011;2522;50.972;11.046;2022-08-07T14:41:43;2.20;;;0.80;;
5006;SDS011;2522;50.972;11.046;2022-08-07T14:44:14;0.87;;;0.60;;
5006;SDS011;2522;50.972;11.046;2022-08-07T14:46:42;3.80;;;0.60;;
5006;SDS011;2522;50.972;11.046;2022-08-07T14:49:11;0.90;;;0.67;;
5006;SDS011;2522;50.972;11.046;2022-08-07T14:51:41;3.83;;;0.70;;
5006;SDS011;2522;50.972;11.046;2022-08-07T14:54:12;1.10;;;0.90;;
5006;SDS011;2522;50.972;11.046;2022-08-07T14:56:41;0.80;;;0.53;;
5006;SDS011;2522;50.972;11.046;2022-08-07T14:59:11;1.17;;;0.70;;
5006;SDS011;2522;50.972;11.046;2022-08-07T15:01:40;1.10;;;0.70;;
5006;SDS011;2522;50.972;11.046;2022-08-07T15:04:07;1.90;;;0.83;;
5006;SDS011;2522;50.972;11.046;2022-08-07T15:06:36;1.23;;;0.60;;
5006;SDS011;2522;50.972;11.046;2022-08-07T15:09:06;0.93;;;0.63;;
5006;SDS011;2522;50.972;11.046;2022-08-07T15:11:38;2.80;;;0.60;;
5006;SDS011;2522;50.972;11.046;2022-08-07T15:14:09;2.03;;;0.60;;
5006;SDS011;2522;50.972;11.046;2022-08-07T15:16:40;3.27;;;0.73;;
5006;SDS011;2522;50.972;11.046;2022-08-07T15:19:10;8.83;;;0.80;;
5006;SDS011;2522;50.972;11.046;2022-08-07T15:21:46;1.53;;;0.63;;
5006;SDS011;2522;50.972;11.046;2022-08-07T15:24:16;1.10;;;0.60;;
5006;SDS011;2522;50.972;11.046;2022-08-07T15:26:48;4.53;;;0.70;;
5006;SDS011;2522;50.972;11.046;2022-08-07T15:29:21;1.20;;;0.50;;
5006;SDS011;2522;50.972;11.046;2022-08-07T15:31:50;0.97;;;0.60;;
5006;SDS011;2522;50.972;11.046;2022-08-07T15:34:17;3.13;;;0.70;;
5006;SDS011;2522;50.972;11.046;2022-08-07T15:36:46;1.40;;;1.00;;
5006;SDS011;2522;50.972;11.046;2022-08-07T15:39:15;3.33;;;0.77;;
5006;SDS011;2522;50.972;11.046;2022-08-07T15:41:56;0.97;;;0.60;;
5006;SDS011;2522;50.972;11.046;2022-08-07T15:44:26;3.03;;;0.70;;
5006;SDS011;2522;50.972;11.046;2022-08-07T15:46:56;1.53;;;0.60;;
5006;SDS011;2522;50.972;11.046;2022-08-07T15:49:27;1.57;;;0.60;;
5006;SDS011;2522;50.972;11.046;2022-08-07T15:51:55;2.40;;;0.60;;
5006;SDS011;2522;50.972;11.046;2022-08-07T15:54:22;1.63;;;0.83;;
5006;SDS011;2522;50.972;11.046;2022-08-07T15:56:51;0.80;;;0.50;;
5006;SDS011;2522;50.972;11.046;2022-08-07T15:59:25;1.27;;;0.77;;
5006;SDS011;2522;50.972;11.046;2022-08-07T16:01:53;6.23;;;1.00;;
5006;SDS011;2522;50.972;11.046;2022-08-07T16:04:25;4.20;;;2.37;;
5006;SDS011;2522;50.972;11.046;2022-08-07T16:06:54;1.47;;;0.80;;
5006;SDS011;2522;50.972;11.046;2022-08-07T16:09:25;1.17;;;0.63;;
5006;SDS011;2522;50.972;11.046;2022-08-07T16:12:08;0.83;;;0.53;;
5006;SDS011;2522;50.972;11.046;2022-08-07T16:14:54;1.20;;;0.60;;
5006;SDS011;2522;50.972;11.046;2022-08-07T16:17:31;1.20;;;0.77;;
5006;SDS011;2522;50.972;11.046;2022-08-07T16:20:18;1.20;;;0.70;;
5006;SDS011;2522;50.972;11.046;2022-08-07T16:23:07;1.93;;;0.73;;
5006;SDS011;2522;50.972;11.046;2022-08-07T16:25:45;3.50;;;1.90;;
5006;SDS011;2522;50.972;11.046;2022-08-07T16:28:22;1.27;;;0.60;;
5006;SDS011;2522;50.972;11.046;2022-08-07T16:31:01;2.50;;;0.63;;
5006;SDS011;2522;50.972;11.046;2022-08-07T16:33:34;1.80;;;0.97;;
5006;SDS011;2522;50.972;11.046;2022-08-07T16:36:15;1.40;;;1.00;;
5006;SDS011;2522;50.972;11.046;2022-08-07T16:38:54;2.40;;;0.90;;
5006;SDS011;2522;50.972;11.046;2022-08-07T16:41:38;1.47;;;0.67;;
5006;SDS011;2522;50.972;11.046;2022-08-07T16:44:31;1.40;;;0.70;;
5006;SDS011;2522;50.972;11.046;2022-08-07T16:47:22;2.47;;;0.60;;
5006;SDS011;2522;50.972;11.046;2022-08-07T16:50:13;1.60;;;0.70;;
5006;SDS011;2522;50.972;11.046;2022-08-07T16:52:51;0.90;;;0.67;;
5006;SDS011;2522;50.972;11.046;2022-08-07T16:55:31;0.90;;;0.57;;
5006;SDS011;2522;50.972;11.046;2022-08-07T16:58:04;1.27;;;0.70;;
5006;SDS011;2522;50.972;11.046;2022-08-07T17:00:59;1.00;;;0.73;;
5006;SDS011;2522;50.972;11.046;2022-08-07T17:03:53;0.90;;;0.60;;
5006;SDS011;2522;50.972;11.046;2022-08-07T17:06:42;1.30;;;0.70;;
5006;SDS011;2522;50.972;11.046;2022-08-07T17:09:17;1.33;;;0.83;;
5006;SDS011;2522;50.972;11.046;2022-08-07T17:11:52;1.53;;;0.77;;
5006;SDS011;2522;50.972;11.046;2022-08-07T17:14:24;3.80;;;1.03;;
5006;SDS011;2522;50.972;11.046;2022-08-07T17:17:01;1.40;;;1.00;;
5006;SDS011;2522;50.972;11.046;2022-08-07T17:19:36;1.10;;;0.70;;
5006;SDS011;2522;50.972;11.046;2022-08-07T17:22:12;1.07;;;0.73;;
5006;SDS011;2522;50.972;11.046;2022-08-07T17:24:46;1.23;;;0.80;;
5006;SDS011;2522;50.972;11.046;2022-08-07T17:27:22;2.07;;;0.67;;
5006;SDS011;2522;50.972;11.046;2022-08-07T17:30:02;1.00;;;0.60;;
5006;SDS011;2522;50.972;11.046;2022-08-07T17:32:35;5.87;;;1.33;;
5006;SDS011;2522;50.972;11.046;2022-08-07T17:35:10;0.80;;;0.60;;
5006;SDS011;2522;50.972;11.046;2022-08-07T17:37:46;1.30;;;1.03;;
5006;SDS011;2522;50.972;11.046;2022-08-07T17:40:20;2.27;;;0.80;;
5006;SDS011;2522;50.972;11.046;2022-08-07T17:42:58;3.50;;;0.90;;
5006;SDS011;2522;50.972;11.046;2022-08-07T17:45:29;4.10;;;1.00;;
5006;SDS011;2522;50.972;11.046;2022-08-07T17:48:01;0.80;;;0.60;;
5006;SDS011;2522;50.972;11.046;2022-08-07T17:50:35;1.60;;;0.83;;
5006;SDS011;2522;50.972;11.046;2022-08-07T17:53:22;1.90;;;0.73;;
5006;SDS011;2522;50.972;11.046;2022-08-07T17:56:07;2.27;;;0.80;;
5006;SDS011;2522;50.972;11.046;2022-08-07T17:58:38;1.50;;;0.77;;
5006;SDS011;2522;50.972;11.046;2022-08-07T18:01:10;3.20;;;0.80;;
5006;SDS011;2522;50.972;11.046;2022-08-07T18:03:45;1.47;;;0.77;;
5006;SDS011;2522;50.972;11.046;2022-08-07T18:06:20;1.00;;;0.60;;
5006;SDS011;2522;50.972;11.046;2022-08-07T18:08:55;1.50;;;0.80;;
5006;SDS011;2522;50.972;11.046;2022-08-07T18:11:28;1.73;;;1.03;;
5006;SDS011;2522;50.972;11.046;2022-08-07T18:14:01;1.33;;;0.77;;
5006;SDS011;2522;50.972;11.046;2022-08-07T18:16:38;2.23;;;0.70;;
5006;SDS011;2522;50.972;11.046;2022-08-07T18:19:13;2.83;;;0.90;;
5006;SDS011;2522;50.972;11.046;2022-08-07T18:21:52;2.93;;;0.80;;
5006;SDS011;2522;50.972;11.046;2022-08-07T18:24:25;1.23;;;0.70;;
5006;SDS011;2522;50.972;11.046;2022-08-07T18:29:51;1.10;;;0.77;;
5006;SDS011;2522;50.972;11.046;2022-08-07T18:35:42;1.40;;;1.00;;
5006;SDS011;2522;50.972;11.046;2022-08-07T18:38:25;0.90;;;0.70;;
5006;SDS011;2522;50.972;11.046;2022-08-07T18:41:05;1.83;;;1.00;;
5006;SDS011;2522;50.972;11.046;2022-08-07T18:43:41;1.63;;;0.67;;
5006;SDS011;2522;50.972;11.046;2022-08-07T18:46:19;1.67;;;0.70;;
5006;SDS011;2522;50.972;11.046;2022-08-07T18:48:51;8.30;;;0.70;;
5006;SDS011;2522;50.972;11.046;2022-08-07T18:51:26;2.13;;;1.20;;
5006;SDS011;2522;50.972;11.046;2022-08-07T18:54:08;1.17;;;0.70;;
5006;SDS011;2522;50.972;11.046;2022-08-07T18:56:41;2.30;;;0.90;;
5006;SDS011;2522;50.972;11.046;2022-08-07T18:59:17;3.07;;;1.20;;
5006;SDS011;2522;50.972;11.046;2022-08-07T19:01:51;1.50;;;0.80;;
5006;SDS011;2522;50.972;11.046;2022-08-07T19:04:26;3.80;;;0.80;;
5006;SDS011;2522;50.972;11.046;2022-08-07T19:07:00;5.30;;;0.80;;
5006;SDS011;2522;50.972;11.046;2022-08-07T19:09:34;1.33;;;0.70;;
5006;SDS011;2522;50.972;11.046;2022-08-07T19:12:10;1.80;;;0.80;;
5006;SDS011;2522;50.972;11.046;2022-08-07T19:14:46;1.53;;;0.80;;
5006;SDS011;2522;50.972;11.046;2022-08-07T19:17:19;1.93;;;0.80;;
5006;SDS011;2522;50.972;11.046;2022-08-07T19:19:52;1.87;;;1.30;;
5006;SDS011;2522;50.972;11.046;2022-08-07T19:22:31;3.53;;;1.23;;
5006;SDS011;2522;50.972;11.046;2022-08-07T19:25:11;2.13;;;0.90;;
5006;SDS011;2522;50.972;11.046;2022-08-07T19:27:38;3.50;;;1.00;;
5006;SDS011;2522;50.972;11.046;2022-08-07T19:30:07;3.30;;;0.90;;
5006;SDS011;2522;50.972;11.046;2022-08-07T19:32:36;6.53;;;1.93;;
5006;SDS011;2522;50.972;11.046;2022-08-07T19:35:06;2.10;;;1.07;;
5006;SDS011;2522;50.972;11.046;2022-08-07T19:37:37;2.27;;;0.70;;
5006;SDS011;2522;50.972;11.046;2022-08-07T19:40:08;1.57;;;0.87;;
5006;SDS011;2522;50.972;11.046;2022-08-07T19:42:38;3.00;;;1.00;;
5006;SDS011;2522;50.972;11.046;2022-08-07T19:45:07;2.17;;;1.40;;
5006;SDS011;2522;50.972;11.046;2022-08-07T19:47:39;4.13;;;1.10;;
5006;SDS011;2522;50.972;11.046;2022-08-07T19:50:09;4.80;;;0.70;;
5006;SDS011;2522;50.972;11.046;2022-08-07T19:52:36;5.00;;;1.00;;
5006;SDS011;2522;50.972;11.046;2022-08-07T19:55:03;3.47;;;0.90;;
5006;SDS011;2522;50.972;11.046;2022-08-07T19:57:36;2.93;;;1.20;;
5006;SDS011;2522;50.972;11.046;2022-08-07T20:00:05;1.93;;;1.00;;
5006;SDS011;2522;50.972;11.046;2022-08-07T20:02:35;1.63;;;1.27;;
5006;SDS011;2522;50.972;11.046;2022-08-07T20:05:06;8.43;;;1.30;;
5006;SDS011;2522;50.972;11.046;2022-08-07T20:07:35;1.93;;;1.10;;
5006;SDS011;2522;50.972;11.046;2022-08-07T20:10:05;3.03;;;1.10;;
5006;SDS011;2522;50.972;11.046;2022-08-07T20:12:35;1.83;;;1.10;;
5006;SDS011;2522;50.972;11.046;2022-08-07T20:15:05;2.00;;;1.03;;
5006;SDS011;2522;50.972;11.046;2022-08-07T20:17:35;1.40;;;1.00;;
5006;SDS011;2522;50.972;11.046;2022-08-07T20:20:04;2.70;;;1.53;;
5006;SDS011;2522;50.972;11.046;2022-08-07T20:22:33;1.93;;;1.20;;
5006;SDS011;2522;50.972;11.046;2022-08-07T20:25:05;2.83;;;1.17;;
5006;SDS011;2522;50.972;11.046;2022-08-07T20:27:33;2.40;;;1.40;;
5006;SDS011;2522;50.972;11.046;2022-08-07T20:30:04;2.47;;;1.10;;
5006;SDS011;2522;50.972;11.046;2022-08-07T20:32:32;7.17;;;1.43;;
5006;SDS011;2522;50.972;11.046;2022-08-07T20:35:02;2.47;;;1.30;;
5006;SDS011;2522;50.972;11.046;2022-08-07T20:40:16;3.73;;;1.70;;
5006;SDS011;2522;50.972;11.046;2022-08-07T20:42:45;2.13;;;1.47;;
5006;SDS011;2522;50.972;11.046;2022-08-07T20:45:15;2.60;;;1.80;;
5006;SDS011;2522;50.972;11.046;2022-08-07T20:47:46;6.70;;;1.83;;
5006;SDS011;2522;50.972;11.046;2022-08-07T20:50:15;3.83;;;1.27;;
5006;SDS011;2522;50.972;11.046;2022-08-07T20:52:45;4.27;;;1.47;;
5006;SDS011;2522;50.972;11.046;2022-08-07T20:55:13;2.20;;;1.23;;
5006;SDS011;2522;50.972;11.046;2022-08-07T20:57:41;2.63;;;1.60;;